createdAt,value
2018-07-29T00:04:33.240Z,0
2018-07-29T00:14:39.721Z,0
2018-07-29T00:24:38.585Z,0
2018-07-29T00:34:33.232Z,0
2018-07-29T00:44:33.244Z,0
2018-07-29T00:54:33.273Z,0
2018-07-29T01:04:43.571Z,0
2018-07-29T01:14:34.602Z,0
2018-07-29T01:24:33.341Z,0
2018-07-29T01:34:46.308Z,0
2018-07-29T01:44:33.352Z,0
2018-07-29T01:54:36.592Z,0
2018-07-29T02:04:33.475Z,0
2018-07-29T02:14:36.659Z,0
2018-07-29T02:24:33.364Z,0
2018-07-29T02:34:35.472Z,0
2018-07-29T02:44:33.392Z,0
2018-07-29T02:54:33.408Z,0
2018-07-29T03:04:34.434Z,0
2018-07-29T03:14:39.698Z,4
2018-07-29T03:24:40.276Z,20
2018-07-29T03:34:51.690Z,64
2018-07-29T03:44:33.405Z,164
2018-07-29T03:54:39.838Z,332
2018-07-29T04:04:33.499Z,616
2018-07-29T04:14:33.457Z,1164
2018-07-29T04:24:36.550Z,1896
2018-07-29T04:34:33.478Z,3508
2018-07-29T04:44:33.504Z,2932
2018-07-29T04:54:40.825Z,3508
2018-07-29T05:04:36.705Z,3324
2018-07-29T05:14:35.578Z,2352
2018-07-29T05:24:34.517Z,4296
2018-07-29T05:34:35.600Z,4792
2018-07-29T05:44:33.456Z,5712
2018-07-29T05:54:33.472Z,6616
2018-07-29T06:04:33.460Z,9440
2018-07-29T06:14:33.477Z,9820
2018-07-29T06:24:33.480Z,9984
2018-07-29T06:34:33.509Z,10340
2018-07-29T06:44:33.458Z,10832
2018-07-29T06:54:33.502Z,50784
2018-07-29T07:04:33.477Z,47392
2018-07-29T07:14:33.519Z,50528
2018-07-29T07:24:33.512Z,64768
2018-07-29T07:34:33.530Z,51616
2018-07-29T07:44:33.540Z,52320
2018-07-29T07:54:33.521Z,57600
2018-07-29T08:04:33.698Z,57984
2018-07-29T08:14:33.521Z,65152
2018-07-29T08:24:33.519Z,61120
2018-07-29T08:34:33.524Z,87680
2018-07-29T08:44:33.540Z,32320
2018-07-29T08:54:33.586Z,42016
2018-07-29T09:04:33.507Z,26816
2018-07-29T09:14:33.522Z,13144
2018-07-29T09:24:33.542Z,16612
2018-07-29T09:34:33.554Z,18272
2018-07-29T09:44:33.523Z,23072
2018-07-29T09:54:33.619Z,24832
2018-07-29T10:04:33.578Z,25856
2018-07-29T10:14:33.604Z,19360
2018-07-29T10:24:33.691Z,17204
2018-07-29T10:34:34.171Z,13716
2018-07-29T10:44:33.565Z,19296
2018-07-29T10:54:33.585Z,14888
2018-07-29T11:04:33.572Z,19968
2018-07-29T11:14:33.562Z,20832
2018-07-29T11:24:33.596Z,20352
2018-07-29T11:34:33.612Z,22688
2018-07-29T11:44:33.670Z,22208
2018-07-29T11:54:33.569Z,23360
2018-07-29T12:04:33.604Z,22048
2018-07-29T12:14:33.616Z,20416
2018-07-29T12:24:33.607Z,20096
2018-07-29T12:34:33.635Z,17044
2018-07-29T12:44:33.603Z,15444
2018-07-29T12:54:33.677Z,19776
2018-07-29T13:04:33.610Z,19808
2018-07-29T13:14:33.620Z,14724
2018-07-29T13:24:33.662Z,10500
2018-07-29T13:34:33.620Z,14668
2018-07-29T13:44:33.836Z,15712
2018-07-29T13:54:33.604Z,12752
2018-07-29T14:04:33.623Z,13584
2018-07-29T14:14:33.653Z,13032
2018-07-29T14:24:33.623Z,14012
2018-07-29T14:34:33.767Z,15428
2018-07-29T14:44:33.687Z,14532
2018-07-29T14:54:33.627Z,13532
2018-07-29T15:04:33.636Z,12124
2018-07-29T15:14:33.736Z,11332
2018-07-29T15:24:33.953Z,10004
2018-07-29T15:34:33.789Z,10520
2018-07-29T15:44:47.932Z,7932
2018-07-29T15:54:35.289Z,7388
2018-07-29T16:04:38.971Z,7480
2018-07-29T16:14:34.013Z,9744
2018-07-29T16:24:34.749Z,12172
2018-07-29T16:34:34.925Z,10004
2018-07-29T16:44:33.825Z,7984
2018-07-29T16:54:36.623Z,9236
2018-07-29T17:04:35.059Z,8748
2018-07-29T17:14:33.859Z,6464
2018-07-29T17:24:33.997Z,4152
2018-07-29T17:34:34.378Z,3816
2018-07-29T17:44:34.180Z,3244
2018-07-29T17:54:50.781Z,3392
2018-07-29T18:04:37.559Z,4388
2018-07-29T18:14:33.669Z,3196
2018-07-29T18:24:49.088Z,2340
2018-07-29T18:34:35.797Z,1596
2018-07-29T18:44:55.288Z,1152
2018-07-29T18:54:33.733Z,856
2018-07-29T19:04:33.724Z,560
2018-07-29T19:14:34.791Z,396
2018-07-29T19:24:41.272Z,164
2018-07-29T19:34:33.963Z,64
2018-07-29T19:44:33.743Z,16
2018-07-29T19:54:33.818Z,4
2018-07-29T20:04:34.106Z,4
2018-07-29T20:14:34.867Z,0
2018-07-29T20:24:33.816Z,0
2018-07-29T20:34:33.754Z,0
2018-07-29T20:44:34.353Z,0
2018-07-29T20:54:36.785Z,0
2018-07-29T21:04:50.059Z,0
2018-07-29T21:24:33.780Z,0
2018-07-29T21:34:33.879Z,0
2018-07-29T21:44:33.760Z,0
2018-07-29T21:54:33.756Z,0
2018-07-29T22:04:33.814Z,0
2018-07-29T22:14:33.822Z,0
2018-07-29T22:24:33.766Z,0
2018-07-29T22:34:33.748Z,0
2018-07-29T22:44:33.871Z,0
2018-07-29T22:54:34.111Z,0
2018-07-29T23:04:33.766Z,0
2018-07-29T23:14:33.773Z,0
2018-07-29T23:24:33.752Z,0
2018-07-29T23:34:33.815Z,0
2018-07-29T23:44:33.784Z,0
2018-07-29T23:54:33.827Z,0
